Wednesday, January 17, 2018, 9:55 AM EST
Back to Local

KDDH, Bennington Morse State Airport

Location: Bennington, VT, United States Lat: 42.883
Local Time: 9:55 AM EST (14:55 GMT) Lon: -73.25
Time Zone: US/Eastern Elev: 826 ft

Show me the last for .
Show Decoded

2018-01-17 09:39 METAR KDDH 171439Z AUTO 00000KT 1 1/4SM -SN BR FEW005 BKN012 OVC029 M02/M04
                 A3025 RMK AO2 P0001 T10221039 =
2018-01-17 09:04 METAR KDDH 171404Z AUTO 00000KT 1 1/4SM -SN BR FEW016 BKN023 OVC029 M02/M04
                 A3025 RMK AO2 P0000 T10221044 =
2018-01-17 08:54 METAR KDDH 171354Z AUTO 00000KT 3/4SM -SN BR BKN023 OVC029 M02/M04 A3025 RMK AO2
                 SLP253 P0001 T10221044 =
2018-01-17 08:52 METAR KDDH 171352Z AUTO 00000KT 3/4SM -SN BR BKN023 OVC029 M02/M04 A3025 RMK AO2
                 P0001 =
2018-01-17 08:12 METAR KDDH 171312Z AUTO 01003KT 1SM -SN BR OVC025 M03/M04 A3025 RMK AO2 P0000
                 T10281044 =
2018-01-17 07:54 METAR KDDH 171254Z AUTO 00000KT 3/4SM -SN BR OVC021 M03/M04 A3025 RMK AO2 SLP252
                 P0002 T10281044 =
2018-01-17 07:28 METAR KDDH 171228Z AUTO VRB04KT 1 3/4SM -SN BR BKN027 OVC046 M03/M05 A3025 RMK
                 AO2 P0001 T10281050 =
2018-01-17 06:54 METAR KDDH 171154Z AUTO 00000KT 2 1/2SM -SN BR OVC043 M03/M04 A3026 RMK AO2
                 SLP258 P0000 60008 70027 T10281044 11022 21028 56009 =
2018-01-17 06:29 METAR KDDH 171129Z AUTO 00000KT 2SM -SN BR OVC042 M03/M04 A3026 RMK AO2 P0000
                 T10281044 =
2018-01-17 05:54 METAR KDDH 171054Z AUTO 00000KT 3SM -SN BR OVC040 M03/M04 A3027 RMK AO2 SLP262
                 P0001 T10281044 =
2018-01-17 04:54 METAR KDDH 170954Z AUTO 00000KT 3SM -SN BR OVC040 M03/M04 A3027 RMK AO2 SLP262
                 P0001 T10281044 =
2018-01-17 04:23 METAR KDDH 170923Z AUTO 00000KT 2SM -SN BR SCT033 OVC042 M03/M04 A3028 RMK AO2
                 P0001 T10281044 =
2018-01-17 03:54 METAR KDDH 170854Z AUTO 00000KT 1 3/4SM -SN BR OVC024 M03/M04 A3029 RMK AO2
                 SLP268 P0002 60006 T10281044 58007 =
2018-01-17 02:54 METAR KDDH 170754Z AUTO 34003KT 1 1/4SM -SN BR OVC022 M03/M04 A3030 RMK AO2
                 SLP271 P0002 T10281044 =
2018-01-17 01:54 METAR KDDH 170654Z AUTO 00000KT 1SM -SN BR VV017 M03/M04 A3031 RMK AO2 SLP274
                 P0002 T10281039 =
2018-01-17 01:02 METAR KDDH 170602Z AUTO 00000KT 1SM -SN BR VV015 M03/M04 A3031 RMK AO2 P0000
                 T10281039 =
2018-01-17 00:54 METAR KDDH 170554Z AUTO 00000KT 1SM -SN BR VV014 M02/M04 A3031 RMK AO2 SLP275
                 P0003 60014 T10221039 11022 21028 58016 =
2018-01-17 00:46 METAR KDDH 170546Z AUTO 00000KT 1SM -SN BR VV014 M02/M04 A3031 RMK AO2 P0003
                 T10221039 =
2018-01-16 23:54 METAR KDDH 170454Z AUTO 00000KT 1SM -SN BR VV016 M02/M04 A3033 RMK AO2 SLP281
                 P0003 T10221044 410171106 =
2018-01-16 23:35 METAR KDDH 170435Z AUTO 00000KT 1SM -SN BR VV015 M02/M04 A3033 RMK AO2 P0002
                 T10221039 =
2018-01-16 23:09 METAR KDDH 170409Z AUTO 00000KT 1SM -SN BR VV014 M03/M04 A3034 RMK AO2 P0001
                 T10281044 =
2018-01-16 23:02 METAR KDDH 170402Z AUTO 00000KT 1SM -SN BR VV015 M02/M04 A3034 RMK AO2 P0000
                 T10221039 =
2018-01-16 22:54 METAR KDDH 170354Z AUTO 00000KT 1SM -SN BR VV014 M02/M04 A3034 RMK AO2 SLP285
                 P0003 T10221039 =
2018-01-16 22:44 METAR KDDH 170344Z AUTO 00000KT 1SM -SN BR VV014 M02/M04 A3034 RMK AO2 P0003
                 T10221039 =
2018-01-16 22:34 METAR KDDH 170334Z AUTO 00000KT 3/4SM -SN BR VV014 M02/M04 A3035 RMK AO2 P0002
                 T10221044 =
2018-01-16 21:54 METAR KDDH 170254Z AUTO 00000KT 1SM -SN BR VV016 M02/M04 A3036 RMK AO2 SLP291
                 P0002 60005 T10221039 55004 =
2018-01-16 21:24 METAR KDDH 170224Z AUTO 00000KT 1 1/4SM -SN BR FEW009 OVC023 M02/M04 A3036 RMK
                 AO2 P0001 T10221039 =
2018-01-16 20:54 METAR KDDH 170154Z AUTO 00000KT 1 1/2SM -SN BR OVC027 M02/M04 A3035 RMK AO2
                 SLP289 P0002 T10221039 =
2018-01-16 19:54 METAR KDDH 170054Z AUTO 00000KT 1 1/4SM -SN BR OVC020 M02/M03 A3036 RMK AO2
                 SLP293 P0001 T10221033 =
2018-01-16 19:20 METAR KDDH 170020Z AUTO 00000KT 1 1/2SM -SN BR OVC028 M02/M03 A3037 RMK AO2
                 P0000 T10221033 =
2018-01-16 18:54 METAR KDDH 162354Z AUTO 00000KT 2SM -SN BR OVC042 M02/M04 A3037 RMK AO2 SLP298
                 P0001 60005 T10221039 11017 21022 55000 =
2018-01-16 18:08 METAR KDDH 162308Z AUTO 00000KT 2SM -SN BR OVC030 M02/M04 A3037 RMK AO2 P0000
                 T10221039 =
2018-01-16 17:54 METAR KDDH 162254Z AUTO 00000KT 1 1/4SM -SN BR OVC020 M02/M03 A3037 RMK AO2
                 SLP297 P0002 T10221033 =
2018-01-16 16:54 METAR KDDH 162154Z AUTO 00000KT 1 1/4SM -SN BR OVC020 M02/M04 A3037 RMK AO2
                 SLP296 P0001 T10221039 =
2018-01-16 16:32 METAR KDDH 162132Z AUTO 00000KT 1SM -SN BR VV019 M02/M04 A3037 RMK AO2 P0001
                 T10171039 =
2018-01-16 16:25 METAR KDDH 162125Z AUTO 00000KT 3/4SM -SN BR VV019 M02/M04 A3037 RMK AO2 P0000
                 T10171039 =
2018-01-16 15:54 METAR KDDH 162054Z AUTO 00000KT 1 1/4SM -SN BR OVC021 M02/M04 A3037 RMK AO2
                 SLP298 P0001 60001 T10171039 53001 =
2018-01-16 15:39 METAR KDDH 162039Z AUTO 00000KT 1 1/2SM -SN BR OVC025 M02/M04 A3037 RMK AO2
                 P0000 T10171039 =
2018-01-16 15:06 METAR KDDH 162006Z AUTO 00000KT 2SM -SN SCT012 BKN029 OVC038 M02/M04 A3037 RMK
                 AO2 P0000 T10171044 =
2018-01-16 14:54 METAR KDDH 161954Z AUTO 00000KT 2SM -SN FEW011 SCT014 OVC033 M02/M04 A3037 RMK
                 AO2 SLP295 P0000 T10171044 =
2018-01-16 14:49 METAR KDDH 161949Z AUTO 00000KT 2SM -SN FEW010 OVC033 M02/M04 A3036 RMK AO2
                 P0000 =
2018-01-16 14:40 METAR KDDH 161940Z AUTO 00000KT 3SM -SN FEW010 BKN035 OVC043 M02/M04 A3037 RMK
                 AO2 P0000 T10171044 =
2018-01-16 14:32 METAR KDDH 161932Z AUTO 00000KT 2 1/2SM -SN BKN034 OVC044 M02/M05 A3037 RMK AO2
                 P0000 T10171050 =
2018-01-16 14:20 METAR KDDH 161920Z AUTO 19004KT 3SM -SN BKN030 OVC038 M02/M05 A3037 RMK AO2
                 P0000 T10171050 =
2018-01-16 14:17 METAR KDDH 161917Z AUTO VRB03KT 2 1/2SM -SN BKN026 OVC036 M02/M05 A3037 RMK AO2
                 P0000 T10171050 =
2018-01-16 13:54 METAR KDDH 161854Z AUTO 20005KT 1 1/2SM -SN BKN025 OVC034 M02/M05 A3037 RMK AO2
                 SLP297 P0000 T10221050 =
2018-01-16 13:48 METAR KDDH 161848Z AUTO 20004KT 1 3/4SM -SN BKN027 BKN034 OVC042 M02/M05 A3037
                 RMK AO2 P0000 TSNO =
2018-01-16 13:28 METAR KDDH 161828Z AUTO 20005KT 2 1/2SM -SN FEW019 BKN036 OVC045 M02/M06 A3037
                 RMK AO2 P0000 T10221056 =
2018-01-16 12:54 METAR KDDH 161754Z AUTO 00000KT 3SM -SN BKN036 OVC048 M02/M05 A3037 RMK AO2
                 SLP296 P0000 60000 T10221050 11022 21078 56018 =
2018-01-16 12:39 METAR KDDH 161739Z AUTO VRB03KT 2SM -SN BKN031 OVC039 M02/M06 A3037 RMK AO2
                 P0000 T10221056 =
2018-01-16 12:35 METAR KDDH 161735Z AUTO 00000KT 1 1/2SM -SN BKN028 OVC035 M03/M06 A3038 RMK AO2
                 P0000 T10281056 =
2018-01-16 12:20 METAR KDDH 161720Z AUTO 00000KT 1 3/4SM -SN FEW016 OVC035 M02/M06 A3038 RMK AO2
                 P0000 T10221056 =
2018-01-16 11:54 METAR KDDH 161654Z AUTO 12003KT 2SM -SN BKN035 OVC044 M03/M06 A3039 RMK AO2
                 SNB22 SLP304 P0000 T10281061 =
2018-01-16 11:35 METAR KDDH 161635Z AUTO VRB03KT 2 1/2SM -SN BKN035 OVC044 M03/M06 A3040 RMK AO2
                 SNB22 P0000 T10281061 =
2018-01-16 10:54 METAR KDDH 161554Z AUTO 00000KT 10SM OVC043 M03/M07 A3042 RMK AO2 SNE40 SLP316
                 P0000 T10331067 =
2018-01-16 10:00 METAR KDDH 161500Z AUTO 00000KT 5SM -SN SCT026 OVC037 M04/M07 A3042 RMK AO2
                 P0000 T10391067 =

Support USWX by starting your Amazon purchase here.